Hovedside
METAR-TAF:

METAR-TAF

Lufthavner :

Pskov, Russland

breddegrad: 57-47-06N, lengdegrad: 028-23-54E, høyde over havet: 47 m

Gjeldene værobservasjon

Denne rapporten ble laget for 39 minutter siden, klokken 14:00 UTC
Vind 2 kt fra skiftende retning
Temperatur -1°C
Luftfuktighet 93%
Trykk 1016 hPa
Brutte skyer i en høyde av 600 ft

METAR: ULOO 221400Z VRB01MPS P5000 BKN006 M01/M02 Q1016 R19/190060 NOSIG RMK OBST OBSC QFE757

Tid: 17:39 (14:39 UTC)

Varsel

Denne rapporten ble laget for 3 timer og 39 minutter siden, klokken 11:00 UTC
Varsel gyldig fra 22. klokken 12 UTC til 22. klokken 21 UTC
Vind 4 kt fra Vest
Sikt: 6000 m
Brutte skyer i en høyde av 500 ft
Brutte skyer i en høyde av 1100 ft
Midlertidig
fra 22. klokken 12 UTC til 22. klokken 21 UTC
Vind 2 kt fra skiftende retning
Sikt: 3100 m
Overskyet i en høyde av 300 ft
lett snø, dis

TAF: ULOO 221100Z 2212/2221 27002MPS 6000 BKN005 BKN011 TEMPO 2212/2221 VRB01MPS 3100 -SN BR OVC003

Værobservasjoner og værvarsel for over 4000 flyplasser (METAR- og TAF-rapporter).

Tilgjengelige stasjoner er representert av de røde og gule prikkene på kartet.

Hold musepekeren over prikken for å se navnet på stasjonen.

Klikk så for å se værobservasjoner og -varsler.

For å forandre kartet kan du klikke på den grønne knappen med svart kryss for å zoome inn, på den grønne knappen med strek for å zoome ut, eller på de grønne pilene for å se tilstøtende kart.


METAR-TAF: